Data for 07/24/2010

Time Sea-Level Adjusted Pressure Absolute Pressure Temperature Relative Humidity Dew Point   
(mb) (inHg) (mb) (inHg) (C) (F) (%) (C) (F)
00:05 1023 30.21 852 25.16 16 60.9 53 6.5 43.8
00:10 1023 30.21 852 25.16 16.1 61 53 6.7 44.1
00:15 1023 30.21 852 25.16 15.9 60.6 55 6.9 44.4
00:20 1023 30.21 852 25.16 15.6 60 56 6.9 44.5
00:25 1023 30.21 852 25.16 15.5 59.9 56 6.8 44.3
00:30 1023 30.21 852 25.16 15.6 60 55 6.8 44.2
00:35 1023 30.21 852 25.16 15.6 60 55 6.8 44.2
00:40 1023 30.21 852 25.16 15.5 60 55 6.7 44.1
00:45 1023 30.21 852 25.16 15.5 59.8 55 6.7 44
00:50 1023 30.21 852 25.16 15.5 59.9 56 6.8 44.2
00:55 1023 30.21 852 25.16 15.3 59.6 57 6.8 44.3
01:00 1023 30.21 852 25.16 15.3 59.5 57 7 44.6
01:05 1023 30.21 852 25.16 15 58.9 58 6.8 44.3
01:10 1023 30.21 852 25.16 14.9 58.8 58 6.9 44.4
01:15 1023 30.21 852 25.16 14.8 58.7 58 6.8 44.2
01:20 1023 30.21 852 25.16 15 59.1 57 6.8 44.2
01:25 1023 30.21 852 25.16 15.1 59.2 57 6.8 44.3
01:30 1023 30.21 852 25.16 15.2 59.3 57 6.8 44.2
01:35 1023 30.21 852 25.16 15.2 59.4 57 6.8 44.3
01:40 1023 30.21 852 25.16 15.2 59.4 57 6.8 44.2
01:45 1023 30.21 852 25.16 15.3 59.6 57 6.8 44.3
01:50 1023 30.21 852 25.16 15.3 59.6 56 6.8 44.2
01:55 1023 30.21 852 25.16 15.3 59.6 57 6.9 44.3
02:00 1023 30.21 852 25.16 15.2 59.4 57 6.9 44.5
02:05 1023 30.21 852 25.16 15.1 59.2 58 6.9 44.4
02:10 1023 30.21 852 25.16 14.9 58.8 59 7 44.5
02:15 1023 30.21 852 25.16 14.7 58.5 59 6.9 44.3
02:20 1023 30.21 852 25.16 14.6 58.2 60 6.8 44.3
02:25 1023 30.21 852 25.16 14.5 58.2 59 6.8 44.2
02:30 1023 30.21 852 25.16 14.6 58.2 59 6.7 44.1
02:35 1023 30.21 852 25.16 14.5 58.2 59 6.7 44.1
02:40 1023 30.21 852 25.16 14.5 58 59 6.7 44.1
02:45 1023 30.21 852 25.16 14.4 57.8 60 6.7 44.1
02:50 1023 30.21 852 25.16 14.2 57.5 60 6.7 44.1
02:55 1023 30.21 852 25.16 14.1 57.3 61 6.6 43.9
03:00 1023 30.21 852 25.16 14 57.2 61 6.7 44
03:05 1023 30.21 852 25.16 13.9 57 61 6.6 43.8
03:10 1023 30.21 852 25.16 13.8 56.9 61 6.6 43.8
03:15 1023 30.21 852 25.16 13.8 56.8 62 6.6 43.9
03:20 1023 30.21 852 25.16 13.6 56.5 62 6.6 43.9
03:25 1023 30.21 852 25.16 13.6 56.4 62 6.5 43.7
03:30 1023 30.21 852 25.16 13.6 56.4 62 6.6 43.8
03:35 1023 30.21 852 25.16 13.6 56.4 62 6.5 43.7
03:40 1023 30.21 852 25.16 13.5 56.3 63 6.6 43.9
03:45 1023 30.21 852 25.16 13.3 55.9 64 6.7 44.1
03:50 1023 30.21 852 25.16 13 55.4 65 6.7 44
03:55 1023 30.21 852 25.16 12.8 55 65 6.5 43.7
04:00 1023 30.21 852 25.16 12.7 54.9 66 6.5 43.7
04:05 1023 30.21 852 25.16 12.6 54.7 66 6.5 43.7
04:10 1023 30.21 852 25.16 12.6 54.7 66 6.4 43.5
04:15 1023 30.21 852 25.16 12.7 54.9 65 6.3 43.4
04:20 1023 30.21 852 25.16 12.8 55 65 6.4 43.5
04:25 1023 30.21 852 25.16 12.8 55 65 6.4 43.5
04:30 1023 30.21 852 25.16 12.8 55.1 64 6.3 43.4
04:35 1023 30.21 852 25.16 12.9 55.3 65 6.4 43.6
04:40 1023 30.21 852 25.16 12.9 55.1 65 6.4 43.5
04:45 1023 30.21 852 25.16 12.8 55 65 6.5 43.7
04:50 1023 30.21 852 25.16 12.8 55 65 6.4 43.5
04:55 1023 30.21 852 25.16 12.8 55 65 6.3 43.4
05:00 1023 30.21 852 25.16 12.7 54.9 65 6.4 43.5
05:05 1023 30.21 852 25.16 12.7 54.8 66 6.5 43.7
05:10 1023 30.21 852 25.16 12.5 54.5 67 6.5 43.7
05:15 1023 30.21 852 25.16 12.4 54.3 68 6.6 44
05:20 1023 30.21 852 25.16 11.9 53.3 70 6.5 43.7
05:25 1023 30.21 852 25.16 11.1 52 70 5.9 42.7
05:30 1023 30.21 852 25.16 10.8 51.4 70 5.7 42.2
05:35 1023 30.21 852 25.16 10.9 51.7 70 5.6 42.2
05:40 1023 30.21 852 25.16 11 51.7 69 5.5 41.9
05:45 1023 30.21 852 25.16 10.8 51.4 69 5.5 41.8
05:50 1023 30.21 852 25.16 10.6 51.1 70 5.5 41.8
05:55 1023 30.21 853 25.19 10.6 51.1 70 5.3 41.6
06:00 1023 30.21 853 25.19 10.6 51 69 5.2 41.4
06:05 1023 30.21 853 25.19 10.5 51 69 5.2 41.4
06:10 1023 30.21 853 25.19 10.7 51.3 68 5.1 41.1
06:15 1023 30.21 853 25.19 10.8 51.5 68 5.2 41.4
06:20 1023 30.21 853 25.19 11 51.9 68 5.4 41.8
06:25 1023 30.21 853 25.19 11.2 52.2 68 5.6 42
06:30 1023 30.21 853 25.19 11.3 52.3 69 5.7 42.3
06:35 1023 30.21 853 25.19 11.2 52.2 68 5.7 42.2
06:40 1023 30.21 853 25.19 11.1 52 69 5.8 42.4
06:45 1023 30.21 853 25.19 11 51.9 69 5.6 42.1
06:50 1023 30.21 853 25.19 11.1 52 69 5.7 42.3
06:55 1023 30.21 852 25.16 11.2 52.2 69 5.8 42.5
07:00 1023 30.21 852 25.16 11.3 52.3 69 5.7 42.3
07:05 1023 30.21 852 25.16 11.4 52.4 68 5.7 42.3
07:10 1023 30.21 852 25.16 11.5 52.6 68 5.7 42.3
07:15 1023 30.21 852 25.16 11.8 53.2 67 5.8 42.4
07:20 1023 30.21 852 25.16 12.1 53.7 66 5.9 42.7
07:25 1023 30.21 852 25.16 12.3 54.2 66 6.2 43.1
07:30 1023 30.21 852 25.16 12.7 54.8 64 6.2 43.1
07:35 1023 30.21 852 25.16 13.1 55.5 64 6.6 43.8
07:40 1023 30.21 852 25.16 13.4 56.1 63 6.6 43.8
07:45 1023 30.21 852 25.16 13.6 56.5 63 6.8 44.3
07:50 1023 30.21 852 25.16 13.9 57 62 6.8 44.2
07:55 1023 30.21 852 25.16 14.3 57.7 61 6.9 44.4
08:00 1023 30.21 852 25.16 14.7 58.4 59 6.7 44.1
08:05 1023 30.21 852 25.16 15.2 59.4 56 6.7 44
08:10 1023 30.21 852 25.16 15.4 59.7 57 6.9 44.5
08:15 1023 30.21 852 25.16 15.9 60.6 57 7.5 45.4
08:20 1023 30.21 852 25.16 16 60.9 56 7.3 45.1
08:25 1023 30.21 852 25.16 16.4 61.4 54 7.1 44.8
08:30 1023 30.21 852 25.16 16.5 61.6 52 6.8 44.2
08:35 1023 30.21 852 25.16 16.9 62.4 52 6.9 44.5
08:40 1023 30.21 852 25.16 17 62.6 52 7.1 44.7
08:45 1023 30.21 852 25.16 17.5 63.5 50 7 44.6
08:50 1023 30.21 852 25.16 17.7 63.8 51 7.4 45.4
08:55 1023 30.21 852 25.16 17.7 63.8 49 6.9 44.5
09:00 1023 30.21 852 25.16 17.9 64.1 48 6.9 44.3
09:05 1023 30.21 852 25.16 18.4 65 47 7 44.6
09:10 1023 30.21 852 25.16 18.2 64.8 47 6.9 44.4
09:15 1023 30.21 852 25.16 18.4 65 48 7.2 44.9
09:20 1023 30.21 852 25.16 18.9 66 46 7 44.6
09:25 1023 30.21 852 25.16 18.7 65.6 45 6.6 43.8
09:30 1023 30.21 852 25.16 18.8 65.9 46 7.2 44.9
09:35 1023 30.21 852 25.16 19.7 67.5 47 8.3 47
09:40 1023 30.21 852 25.16 18.8 65.8 49 7.9 46.3
09:45 1023 30.21 852 25.16 19.3 66.7 47 7.9 46.2
09:50 1023 30.21 852 25.16 19 66.2 47 7.7 45.9
09:55 1023 30.21 852 25.16 19.1 66.3 49 8.3 46.9
10:00 1023 30.21 852 25.16 18.8 65.8 48 7.6 45.6
10:05 1023 30.21 852 25.16 19 66.2 49 8.1 46.6
10:10 1023 30.21 852 25.16 18.5 65.2 49 7.6 45.6
10:15 1023 30.21 852 25.16 19.1 66.5 45 7.1 44.9
10:20 1023 30.21 852 25.16 20.2 68.3 44 7.7 45.8
10:25 1023 30.21 852 25.16 20.2 68.4 44 7.7 45.9
10:30 1023 30.21 852 25.16 19.6 67.4 45 7.5 45.6
10:35 1023 30.21 852 25.16 19.9 67.8 46 8.2 46.7
10:40 1023 30.21 852 25.16 20.3 68.5 42 7.2 45
10:45 1023 30.21 852 25.16 20.7 69.3 44 8.3 46.9
10:50 1023 30.21 852 25.16 20.3 68.5 43 7.4 45.3
10:55 1023 30.21 852 25.16 21.1 70 41 7.6 45.6
11:00 1023 30.21 852 25.16 21.8 71.3 40 7.7 45.9
11:05 1023 30.21 852 25.16 21.4 70.4 43 8.5 47.2
11:10 1023 30.21 852 25.16 20.5 69 42 7.2 45
11:15 1023 30.21 852 25.16 21 69.8 41 7.2 45
11:20 1023 30.21 852 25.16 21.3 70.3 40 7.1 44.8
11:25 1023 30.21 852 25.16 22 71.6 38 7.2 45
11:30 1023 30.21 852 25.16 21.5 70.7 40 7.5 45.5
11:35 1023 30.21 852 25.16 21.6 70.9 41 7.8 46.1
11:40 1023 30.21 852 25.16 21 69.8 41 7.5 45.5
11:45 1022 30.18 852 25.16 22 71.5 37 6.7 44.1
11:50 1022 30.18 852 25.16 21.6 70.9 40 7.8 46
11:55 1022 30.18 852 25.16 21.8 71.2 40 7.6 45.7
12:00 1022 30.18 852 25.16 21.5 70.7 39 7 44.6
12:05 1022 30.18 852 25.16 22.7 72.9 37 7.3 45.2
12:10 1022 30.18 851 25.13 22.6 72.6 37 7.4 45.4
12:15 1022 30.18 851 25.13 23.3 74 35 7.1 44.8
12:20 1022 30.18 851 25.13 23.6 74.4 35 7.4 45.3
12:25 1022 30.18 851 25.13 22.8 73 34 6.4 43.5
12:30 1022 30.18 851 25.13 23.5 74.3 34 6.9 44.3
12:35 1022 30.18 851 25.13 23.1 73.5 35 7.1 44.8
12:40 1022 30.18 851 25.13 24.1 75.3 31 6.3 43.3
12:45 1022 30.18 851 25.13 24.6 76.2 31 6.7 44.1
12:50 1022 30.18 851 25.13 24.1 75.5 33 7.1 44.8
12:55 1022 30.18 851 25.13 24.4 75.9 32 7 44.6
13:00 1022 30.18 851 25.13 23.7 74.7 31 5.9 42.7
13:05 1022 30.18 851 25.13 24.7 76.5 31 6.9 44.4
13:10 1022 30.18 851 25.13 24.8 76.6 29 5.7 42.3
13:15 1022 30.18 851 25.13 25 76.9 29 5.8 42.5
13:20 1022 30.18 851 25.13 25.5 77.9 28 5.7 42.3
13:25 1022 30.18 851 25.13 25.4 77.7 29 6.5 43.8
13:30 1022 30.18 851 25.13 25.3 77.5 28 5.8 42.4
13:35 1022 30.18 851 25.13 25.5 77.8 29 6.4 43.6
13:40 1021 30.15 851 25.13 25.3 77.6 29 6.1 43
13:45 1021 30.15 851 25.13 25 77 29 5.9 42.7
13:50 1021 30.15 851 25.13 25.9 78.5 27 5.7 42.3
13:55 1021 30.15 850 25.1 25.9 78.6 27 5.8 42.5
14:00 1021 30.15 850 25.1 26.1 79.1 25 4.6 40.3
14:05 1021 30.15 850 25.1 24.9 76.8 27 4.8 40.7
14:10 1021 30.15 850 25.1 25.4 77.8 26 4.6 40.3
14:15 1021 30.15 850 25.1 26.5 79.7 25 5.3 41.5
14:20 1021 30.15 850 25.1 26.8 80.2 25 5.4 41.8
14:25 1021 30.15 850 25.1 25.6 78 28 5.7 42.3
14:30 1021 30.15 850 25.1 26.1 78.9 27 5.8 42.4
14:35 1021 30.15 850 25.1 26.9 80.4 25 5.4 41.7
14:40 1021 30.15 850 25.1 27.1 80.7 27 6.5 43.7
14:45 1021 30.15 850 25.1 26.9 80.4 26 6.3 43.4
14:50 1021 30.15 850 25.1 26.2 79.2 27 6.1 43
14:55 1021 30.15 850 25.1 27.1 80.7 26 6.3 43.3
15:00 1021 30.15 850 25.1 28 82.3 26 6.8 44.2
15:05 1021 30.15 850 25.1 28 82.4 25 6.6 43.8
15:10 1021 30.15 850 25.1 27.4 81.3 26 6.4 43.5
15:15 1021 30.15 850 25.1 27.4 81.4 26 6.6 43.8
15:20 1021 30.15 850 25.1 27.5 81.5 26 6.6 43.9
15:25 1021 30.15 850 25.1 27.5 81.6 25 5.9 42.7
15:30 1021 30.15 850 25.1 28 82.4 24 6 42.7
15:35 1020 30.12 850 25.1 28.4 83.1 24 6 42.7
15:40 1020 30.12 850 25.1 28.8 83.9 24 6.4 43.5
15:45 1020 30.12 850 25.1 28.9 84 24 6.3 43.4
15:50 1020 30.12 850 25.1 29.2 84.5 23 6.4 43.5
15:55 1020 30.12 850 25.1 28.8 83.8 23 6.1 43
16:00 1020 30.12 850 25.1 28.6 83.5 23 5.5 41.9
16:05 1020 30.12 850 25.1 28.5 83.3 22 5.3 41.6
16:10 1020 30.12 850 25.1 28.3 82.9 22 5.2 41.3
16:15 1020 30.12 850 25.1 28.2 82.8 22 5 40.9
16:20 1020 30.12 850 25.1 28.1 82.5 23 5.2 41.3
16:25 1020 30.12 850 25.1 28.3 82.9 22 4.9 40.8
16:30 1020 30.12 849 25.07 29 84.2 23 5.9 42.6
16:35 1020 30.12 849 25.07 28.8 83.8 22 5.6 42.1
16:40 1020 30.12 849 25.07 28.9 84 22 5.5 42
16:45 1020 30.12 849 25.07 28.8 83.9 22 5.2 41.4
16:50 1020 30.12 849 25.07 27.9 82.1 23 5 41
16:55 1020 30.12 849 25.07 28.5 83.4 22 5 40.9
17:00 1020 30.12 849 25.07 29 84.2 21 4.6 40.3
17:05 1020 30.12 849 25.07 28.4 83 22 4.6 40.3
17:10 1020 30.12 849 25.07 28.2 82.8 23 5.7 42.3
17:15 1020 30.12 849 25.07 28.5 83.2 21 4.2 39.6
17:20 1020 30.12 849 25.07 28.1 82.6 22 4.8 40.6
17:25 1020 30.12 849 25.07 28.7 83.7 20 4 39.3
17:30 1020 30.12 849 25.07 29.1 84.4 19 3.3 38
17:35 1020 30.12 849 25.07 29.4 84.9 19 3.6 38.4
17:40 1020 30.12 849 25.07 29.1 84.3 20 3.8 38.9
17:45 1020 30.12 849 25.07 28 82.4 20 3.3 37.9
17:50 1020 30.12 849 25.07 27.9 82.2 20 3.4 38
17:55 1020 30.12 849 25.07 28.7 83.6 19 3.2 37.8
18:00 1020 30.12 849 25.07 29.3 84.7 19 3.6 38.5
18:05 1020 30.12 849 25.07 29.1 84.3 17 2.2 36
18:10 1020 30.12 849 25.07 29.1 84.3 18 2.7 36.9
18:15 1020 30.12 849 25.07 28.9 84 18 2.3 36.1
18:20 1020 30.12 849 25.07 29.2 84.5 18 2.6 36.6
18:25 1020 30.12 849 25.07 29 84.1 18 2.8 37
18:30 1020 30.12 849 25.07 28.6 83.4 18 2.5 36.6
18:35 1020 30.12 849 25.07 28.4 83.1 19 2.7 36.8
18:40 1020 30.12 849 25.07 28.2 82.7 18 2.1 35.7
18:45 1020 30.12 849 25.07 28.7 83.6 18 2.5 36.5
18:50 1020 30.12 849 25.07 28.1 82.5 19 2.5 36.5
18:55 1020 30.12 849 25.07 28.2 82.7 19 2.4 36.3
19:00 1020 30.12 849 25.07 28.7 83.7 19 2.8 37
19:05 1020 30.12 849 25.07 28.7 83.7 19 3 37.3
19:10 1020 30.12 849 25.07 28.8 83.9 18 2.6 36.6
19:15 1020 30.12 849 25.07 28.8 83.8 19 3.2 37.8
19:20 1020 30.12 849 25.07 27.7 81.8 19 2.2 36
19:25 1020 30.12 849 25.07 27.1 80.8 20 2.3 36.1
19:30 1020 30.12 849 25.07 27 80.6 20 2.3 36.2
19:35 1020 30.12 849 25.07 27.1 80.7 21 2.9 37.3
19:40 1020 30.12 849 25.07 27 80.6 20 2.1 35.7
19:45 1020 30.12 849 25.07 27 80.5 21 2.7 36.9
19:50 1020 30.12 849 25.07 26.9 80.5 21 3.3 38
19:55 1020 30.12 849 25.07 26.9 80.4 20 2.5 36.6
20:00 1020 30.12 849 25.07 26.7 80.1 23 4.3 39.8
20:05 1019 30.09 849 25.07 26.6 79.8 23 4.2 39.5
20:10 1019 30.09 849 25.07 26.6 79.8 22 3.5 38.2
20:15 1020 30.12 849 25.07 26.4 79.5 25 5.2 41.3
20:20 1020 30.12 849 25.07 26.3 79.3 28 6.6 43.8
20:25 1020 30.12 849 25.07 25.9 78.6 30 7.1 44.8
20:30 1019 30.09 849 25.07 25.7 78.2 32 7.8 46
20:35 1019 30.09 849 25.07 25.5 77.9 31 7.6 45.6
20:40 1019 30.09 849 25.07 25.4 77.7 32 7.6 45.6
20:45 1019 30.09 849 25.07 24.8 76.6 33 7.6 45.7
20:50 1019 30.09 849 25.07 24.4 75.9 32 6.9 44.4
20:55 1019 30.09 849 25.07 24.1 75.3 37 8.5 47.4
21:00 1019 30.09 849 25.07 23.4 74.1 37 8.1 46.5
21:05 1019 30.09 849 25.07 22.7 72.8 39 8.1 46.7
21:10 1020 30.12 849 25.07 22.1 71.8 40 8.1 46.5
21:15 1020 30.12 849 25.07 21.4 70.6 44 8.8 47.9
21:20 1020 30.12 849 25.07 20.8 69.5 47 9.1 48.4
21:25 1020 30.12 849 25.07 20.5 68.9 44 8.1 46.6
21:30 1020 30.12 849 25.07 20.5 68.9 42 7.4 45.3
21:35 1020 30.12 849 25.07 20.4 68.7 41 6.9 44.4
21:40 1020 30.12 849 25.07 20.2 68.3 41 6.7 44
21:45 1020 30.12 849 25.07 20 67.9 40 6.1 43
21:50 1020 30.12 849 25.07 20 68.1 39 6 42.8
21:55 1020 30.12 849 25.07 20.2 68.3 38 5.4 41.7
22:00 1020 30.12 849 25.07 20 68 40 6 42.8
22:05 1020 30.12 849 25.07 19.5 67.1 41 6 42.8
22:10 1020 30.12 849 25.07 19.5 67 39 5.1 41.2
22:15 1020 30.12 849 25.07 19.6 67.2 39 5.3 41.6
22:20 1020 30.12 849 25.07 19.3 66.7 41 6 42.7
22:25 1020 30.12 849 25.07 19 66.2 41 5.5 41.8
22:30 1020 30.12 849 25.07 18.9 66 40 5.2 41.4
22:35 1020 30.12 849 25.07 18.9 66 41 5.6 42.2
22:40 1020 30.12 849 25.07 18.4 65.2 43 5.6 42.2
22:45 1020 30.12 849 25.07 18.4 65.1 41 5.1 41.1
22:50 1020 30.12 849 25.07 18.4 65.2 45 6.3 43.4
22:55 1020 30.12 849 25.07 18.3 64.9 42 5.4 41.7
23:00 1020 30.12 849 25.07 18.1 64.6 43 5.3 41.6
23:05 1020 30.12 849 25.07 18 64.3 42 5 41
23:10 1020 30.12 849 25.07 18 64.5 42 5 41
23:15 1020 30.12 849 25.07 17.9 64.3 43 5.2 41.4
23:20 1020 30.12 849 25.07 17.7 63.8 43 5.2 41.4
23:25 1020 30.12 849 25.07 17.6 63.7 42 4.7 40.5
23:30 1020 30.12 849 25.07 17.7 63.8 45 5.6 42.1
23:35 1020 30.12 849 25.07 17.6 63.6 45 5.7 42.2
23:40 1020 30.12 849 25.07 17.7 63.8 42 4.7 40.5
23:45 1020 30.12 849 25.07 17.7 63.8 41 4.5 40.2
23:50 1020 30.12 849 25.07 17.8 64 41 4.5 40
23:55 1020 30.12 849 25.07 18.1 64.5 40 4.3 39.7
24:00 1020 30.12 849 25.07 18.1 64.7 40 4.4 39.9